Time;durP1;ratioP1;P1;durP2;ratioP2;P2;SDS_P1;SDS_P2;PMS_P1;PMS_P2;Temp;Humidity;BMP_temperature;BMP_pressure;BME280_temperature;BME280_humidity;BME280_pressure;Samples;Min_cycle;Max_cycle;Signal;HPM_P1;HPM_P2
2023/06/11 00:01:51;;;;;;;;;10.33;10.33;;;;;26.83;52.71;42455.19;5015876;28;45740;-81
2023/06/11 00:04:25;;;;;;;;;12.33;11.00;;;;;26.82;52.61;42109.44;4995585;28;47001;-80
2023/06/11 00:06:53;;;;;;;;;8.67;8.00;;;;;26.78;52.96;41823.13;5015146;28;45520;-80
2023/06/11 00:09:19;;;;;;;;;12.33;10.67;;;;;26.92;52.58;41200.09;5014285;28;45510;-81
2023/06/11 00:11:44;;;;;;;;;9.00;9.00;;;;;26.91;52.93;40434.44;5014066;28;46601;-81
2023/06/11 00:14:10;;;;;;;;;12.00;11.67;;;;;26.91;53.13;39262.56;4991890;28;47484;-81
2023/06/11 00:16:36;;;;;;;;;10.67;10.33;;;;;26.87;53.44;37953.34;5007293;28;47073;-81
2023/06/11 00:19:03;;;;;;;;;10.33;9.33;;;;;26.88;53.57;35356.56;5000808;28;45552;-82
2023/06/11 00:21:29;;;;;;;;;9.33;9.00;;;;;26.79;54.37;31908.97;5010251;28;45581;-81
2023/06/11 00:23:57;;;;;;;;;13.00;13.00;;;;;26.83;54.05;30406.16;4987036;28;46053;-81
2023/06/11 00:26:23;;;;;;;;;10.33;10.33;;;;;26.89;54.42;29345.13;5010601;28;45441;-79
2023/06/11 00:28:48;;;;;;;;;12.00;11.00;;;;;26.90;54.36;28424.47;4994853;28;45464;-81
2023/06/11 00:31:13;;;;;;;;;10.00;9.33;;;;;26.80;54.26;27908.78;5026333;28;46063;-81
2023/06/11 00:33:39;;;;;;;;;10.00;10.00;;;;;26.90;54.23;29386.22;5021474;28;47359;-81
2023/06/11 00:36:04;;;;;;;;;9.00;8.33;;;;;26.90;53.62;29332.22;5025733;28;45659;-81
2023/06/11 00:38:30;;;;;;;;;9.33;8.33;;;;;26.76;53.55;30630.41;5005147;28;45614;-80
2023/06/11 00:40:55;;;;;;;;;7.00;7.00;;;;;26.69;53.60;31073.13;5022972;28;45604;-80
2023/06/11 00:43:23;;;;;;;;;6.33;6.33;;;;;26.78;53.85;30491.81;5020467;28;46502;-80
2023/06/11 00:45:51;;;;;;;;;8.00;8.00;;;;;26.68;53.17;31856.94;5024105;28;45532;-81
2023/06/11 00:48:20;;;;;;;;;7.33;7.33;;;;;26.72;53.30;32931.78;5023533;28;45537;-84
2023/06/11 00:50:51;;;;;;;;;9.67;6.67;;;;;26.81;53.69;31536.19;5007387;28;45628;-81
2023/06/11 00:53:18;;;;;;;;;9.33;7.33;;;;;26.81;52.76;33595.94;5021440;28;45587;-79
2023/06/11 00:55:44;;;;;;;;;7.67;7.67;;;;;26.83;53.33;33737.00;5022614;28;45508;-81
2023/06/11 00:58:13;;;;;;;;;5.33;5.33;;;;;26.82;53.23;33811.69;5023837;28;45600;-81
2023/06/11 05:00:18;;;;;;;;;12.33;12.00;;;;;25.67;60.97;-17853.09;6086454;22;46590;-82
2023/06/11 05:02:44;;;;;;;;;11.33;10.00;;;;;25.68;61.28;-17853.34;5005193;28;45657;-81
2023/06/11 05:05:10;;;;;;;;;13.00;12.67;;;;;25.59;60.99;-17851.25;5007286;28;46831;-82
2023/06/11 05:07:36;;;;;;;;;16.67;11.00;;;;;25.59;60.87;-17851.25;5000676;28;45408;-82
2023/06/11 05:10:02;;;;;;;;;13.67;11.67;;;;;25.57;61.24;-17850.78;5013940;28;45346;-81
2023/06/11 05:12:27;;;;;;;;;15.67;12.33;;;;;25.71;61.01;-18193.00;5013343;28;45415;-81
2023/06/11 05:14:52;;;;;;;;;16.33;11.33;;;;;25.71;61.62;-17853.94;5012427;28;45423;-82
2023/06/11 05:17:18;;;;;;;;;13.00;10.33;;;;;25.70;61.32;-17853.81;4993462;28;45487;-82
2023/06/11 05:19:43;;;;;;;;;11.33;10.33;;;;;25.75;60.74;-17854.84;5009037;28;45896;-81
2023/06/11 05:22:09;;;;;;;;;16.67;13.33;;;;;25.74;61.52;-17854.50;5009129;28;45437;-82
2023/06/11 05:24:34;;;;;;;;;10.00;10.00;;;;;25.66;61.24;-17852.88;5010559;28;45565;-81
2023/06/11 05:27:00;;;;;;;;;9.67;9.67;;;;;25.73;61.54;-17854.28;5014161;28;45551;-81
2023/06/11 05:29:26;;;;;;;;;13.67;12.00;;;;;25.81;61.30;-17856.13;5017604;28;45848;-81
2023/06/11 05:31:52;;;;;;;;;15.33;13.00;;;;;25.69;61.11;-17853.47;5009070;28;45668;-81
2023/06/11 05:34:18;;;;;;;;;14.00;14.00;;;;;25.85;61.29;-17518.00;5016147;28;46567;-81
2023/06/11 05:36:45;;;;;;;;;12.67;12.00;;;;;25.88;60.72;-17518.66;5008021;28;45491;-81
2023/06/11 05:39:12;;;;;;;;;13.00;12.00;;;;;25.91;60.94;-17519.22;5017331;28;45542;-81
2023/06/11 05:41:38;;;;;;;;;11.00;11.00;;;;;25.83;60.63;-17517.41;5012650;28;45539;-81
2023/06/11 05:44:03;;;;;;;;;13.33;13.33;;;;;25.97;60.79;-17520.59;5014927;28;45555;-83
2023/06/11 05:46:29;;;;;;;;;11.67;9.67;;;;;25.92;61.00;-17519.34;5015755;28;45535;-84
2023/06/11 05:48:55;;;;;;;;;16.33;15.00;;;;;25.92;60.76;-17180.22;5016145;28;45455;-83
2023/06/11 05:51:20;;;;;;;;;12.67;12.67;;;;;26.08;60.67;-17183.75;4980525;28;46478;-83
2023/06/11 05:53:46;;;;;;;;;13.33;12.67;;;;;25.99;60.74;-17520.94;5010404;28;46084;-83
2023/06/11 05:56:11;;;;;;;;;17.33;15.33;;;;;26.07;60.55;-17522.75;5005845;28;45619;-82
2023/06/11 05:58:37;;;;;;;;;14.33;12.33;;;;;26.17;60.39;-17525.00;5007720;28;45536;-83
2023/06/11 06:01:03;;;;;;;;;12.33;11.33;;;;;26.15;60.36;-17524.56;5006554;28;45490;-84
2023/06/11 06:03:33;;;;;;;;;11.33;11.33;;;;;26.07;60.46;-17522.84;5012141;28;46659;-85
2023/06/11 06:06:03;;;;;;;;;12.00;12.00;;;;;26.06;60.72;-17522.63;5012062;28;45698;-83
2023/06/11 06:08:29;;;;;;;;;11.67;10.67;;;;;26.20;60.75;-17525.69;5010692;28;46119;-84
2023/06/11 06:10:55;;;;;;;;;14.00;13.67;;;;;26.18;60.74;-17525.22;5011864;28;45586;-84
2023/06/11 06:13:24;;;;;;;;;14.00;12.00;;;;;26.40;60.55;-17529.97;5011025;28;50294;-84
2023/06/11 06:15:50;;;;;;;;;14.00;13.00;;;;;26.39;59.95;-17190.25;5012669;28;45543;-84
2023/06/11 06:18:15;;;;;;;;;13.00;13.00;;;;;26.47;60.16;-17192.03;5010410;28;45839;-84
2023/06/11 06:20:41;;;;;;;;;14.67;10.67;;;;;26.53;59.85;-17193.44;5011948;28;45567;-84
2023/06/11 06:23:07;;;;;;;;;11.00;11.00;;;;;26.61;59.75;-17195.09;5017216;28;45958;-85
2023/06/11 06:25:33;;;;;;;;;12.33;12.00;;;;;26.52;59.73;-16853.53;5013167;28;45539;-85
2023/06/11 06:27:59;;;;;;;;;16.33;12.00;;;;;26.74;59.55;-16858.16;5012807;28;45376;-84
2023/06/11 06:30:24;;;;;;;;;13.00;13.00;;;;;26.79;59.04;-16519.44;5003923;28;45413;-86
2023/06/11 06:32:50;;;;;;;;;13.33;13.33;;;;;26.84;59.28;-16520.41;5012256;28;45422;-86
2023/06/11 06:35:15;;;;;;;;;11.67;10.00;;;;;26.78;59.07;-16179.34;4990842;28;45836;-86
2023/06/11 06:37:41;;;;;;;;;14.00;12.33;;;;;26.90;58.78;-15841.91;5010538;28;45506;-86
2023/06/11 06:40:07;;;;;;;;;13.67;11.33;;;;;26.73;59.22;-16178.41;5013576;28;45677;-86
2023/06/11 06:42:32;;;;;;;;;12.00;11.33;;;;;26.71;59.19;-16178.00;5012569;28;45778;-87
2023/06/11 06:44:57;;;;;;;;;16.00;14.67;;;;;26.98;59.21;-16183.41;5015694;28;45705;-87
2023/06/11 06:47:23;;;;;;;;;14.33;13.67;;;;;26.94;58.51;-15842.78;5009226;28;51855;-87
2023/06/11 06:49:48;;;;;;;;;17.00;14.00;;;;;27.09;58.93;-15845.66;5026709;28;45056;-87
2023/06/11 06:52:13;;;;;;;;;18.33;16.67;;;;;27.11;58.68;-15845.97;5026951;28;59019;-86
2023/06/11 06:54:39;;;;;;;;;13.33;13.33;;;;;27.05;58.92;-15844.88;5009061;28;45422;-86
2023/06/11 06:57:07;;;;;;;;;17.00;14.67;;;;;27.22;59.07;-16188.13;5014189;28;45427;-87
2023/06/11 06:59:33;;;;;;;;;17.00;16.00;;;;;27.27;58.92;-16189.25;5009634;28;45616;-85
2023/06/11 07:01:58;;;;;;;;;18.00;16.00;;;;;27.32;58.96;-16190.25;5011239;28;47191;-87
2023/06/11 07:04:24;;;;;;;;;19.33;17.67;;;;;27.36;58.67;-15850.94;5012498;28;45490;-86
2023/06/11 07:06:49;;;;;;;;;18.00;17.00;;;;;27.39;58.92;-16191.47;5008846;28;45605;-86
2023/06/11 07:09:14;;;;;;;;;18.67;17.00;;;;;27.44;58.31;-15512.09;5014320;28;46516;-87
2023/06/11 07:11:40;;;;;;;;;18.00;15.67;;;;;27.31;58.13;-15169.53;5009946;28;45526;-86
2023/06/11 07:14:05;;;;;;;;;14.33;14.33;;;;;27.39;58.27;-15171.03;4989629;28;52804;-87
2023/06/11 07:16:31;;;;;;;;;18.67;15.67;;;;;27.42;58.02;-15511.81;5007998;28;45593;-88
2023/06/11 07:18:56;;;;;;;;;18.00;17.00;;;;;27.32;58.43;-15169.81;5008735;28;45482;-88
2023/06/11 07:21:23;;;;;;;;;17.00;17.00;;;;;27.44;57.87;-15171.88;5003066;28;46908;-89
2023/06/11 07:23:48;;;;;;;;;16.33;15.33;;;;;27.53;57.81;-15173.66;5011440;28;45706;-89
2023/06/11 07:26:15;;;;;;;;;12.67;11.33;;;;;27.59;58.16;-15174.69;5011722;28;45498;-87
2023/06/11 07:28:41;;;;;;;;;11.00;10.00;;;;;27.58;57.83;-15174.50;5004082;28;45516;-88
2023/06/11 07:31:07;;;;;;;;;16.33;15.00;;;;;27.66;57.54;-14495.19;5007673;28;46939;-88
2023/06/11 07:33:32;;;;;;;;;15.00;13.00;;;;;27.69;57.35;-14155.25;5011425;28;45772;-89
2023/06/11 07:35:59;;;;;;;;;15.33;15.33;;;;;27.78;57.21;-14156.69;5019323;28;45383;-88
2023/06/11 07:38:25;;;;;;;;;14.67;14.67;;;;;27.58;56.47;-13472.53;5015652;28;45501;-90
2023/06/11 07:40:51;;;;;;;;;12.33;12.33;;;;;27.70;56.46;-13133.81;5012177;28;46488;-90
2023/06/11 07:43:16;;;;;;;;;14.00;13.00;;;;;27.95;56.11;-13137.59;5014938;28;45407;-88
2023/06/11 07:45:43;;;;;;;;;15.67;15.33;;;;;28.08;55.47;-12798.66;5014047;28;45384;-90
2023/06/11 07:48:09;;;;;;;;;17.00;15.33;;;;;28.30;55.62;-12801.91;5009449;28;45572;-92
2023/06/11 07:50:34;;;;;;;;;17.00;16.33;;;;;28.09;55.27;-12117.16;5010519;28;45855;-92
2023/06/11 07:53:00;;;;;;;;;16.67;16.67;;;;;28.32;55.28;-12120.28;5012799;28;45526;-93
2023/06/11 07:55:25;;;;;;;;;16.33;16.00;;;;;28.35;55.41;-12120.63;5013601;28;45467;-92
2023/06/11 07:57:50;;;;;;;;;21.33;16.67;;;;;28.50;54.84;-11781.56;5015776;28;45477;-92
2023/06/11 08:00:17;;;;;;;;;15.00;15.00;;;;;28.49;54.85;-11440.22;5014929;28;46058;-94
2023/06/11 08:02:43;;;;;;;;;15.33;14.67;;;;;28.67;54.55;-11442.50;5015257;28;45519;-96
2023/06/11 08:05:11;;;;;;;;;16.33;16.00;;;;;28.64;54.16;-10759.59;5013312;28;45444;-91
2023/06/11 08:07:36;;;;;;;;;18.67;16.00;;;;;28.44;54.68;-10757.28;5013814;28;45658;-94
2023/06/11 08:10:02;;;;;;;;;15.00;15.00;;;;;28.23;55.22;-11096.03;5016081;28;47238;-96
2023/06/11 08:12:27;;;;;;;;;15.33;15.33;;;;;28.49;54.87;-11099.13;5005073;28;45474;-91
2023/06/11 08:14:53;;;;;;;;;13.33;13.33;;;;;28.61;54.28;-10759.31;5008386;28;45407;-91
2023/06/11 08:17:19;;;;;;;;;20.00;17.33;;;;;28.61;54.43;-10418.00;5007434;28;45686;-91
2023/06/11 08:19:45;;;;;;;;;16.00;15.00;;;;;28.74;54.14;-10077.94;5010717;28;46242;-89
2023/06/11 08:22:10;;;;;;;;;14.00;13.00;;;;;28.71;53.90;-9736.22;5010629;28;45994;-94
2023/06/11 08:24:36;;;;;;;;;19.00;15.67;;;;;28.68;54.16;-10077.38;5010537;28;45550;-90
2023/06/11 08:27:02;;;;;;;;;19.00;16.33;;;;;28.66;54.73;-10418.47;5011046;28;45469;-90
2023/06/11 08:29:28;;;;;;;;;10.67;10.00;;;;;28.83;54.40;-10078.94;5011142;28;46481;-85
2023/06/11 08:31:53;;;;;;;;;17.00;16.33;;;;;28.61;53.89;-9735.34;5008295;28;45812;-87
2023/06/11 08:34:18;;;;;;;;;12.67;12.67;;;;;28.80;53.89;-9737.16;5006011;28;45451;-87
2023/06/11 08:36:44;;;;;;;;;15.00;12.00;;;;;29.02;53.64;-9739.25;5009098;28;45553;-86
2023/06/11 08:39:09;;;;;;;;;16.67;12.33;;;;;29.03;53.73;-9739.34;5005760;28;47384;-88
2023/06/11 08:41:36;;;;;;;;;13.67;13.67;;;;;29.27;53.72;-10425.00;5005870;28;45410;-93
2023/06/11 08:44:01;;;;;;;;;15.00;13.33;;;;;29.51;53.35;-9743.94;5011784;28;45454;-92
2023/06/11 08:46:33;;;;;;;;;16.33;15.33;;;;;29.63;52.99;-9745.16;4996648;28;45519;-90
2023/06/11 08:49:06;;;;;;;;;11.33;11.33;;;;;29.82;52.44;-8720.78;5010546;28;47171;-89
2023/06/11 08:51:39;;;;;;;;;15.67;12.33;;;;;29.77;52.28;-8720.34;5007942;28;45510;-89
2023/06/11 08:54:09;;;;;;;;;13.67;12.67;;;;;29.69;52.40;-8719.72;5001786;28;45657;-90
2023/06/11 08:56:35;;;;;;;;;15.00;12.67;;;;;29.71;52.89;-8719.84;5008295;28;45810;-90
2023/06/11 08:59:01;;;;;;;;;17.33;14.33;;;;;29.16;52.23;-7348.19;4991107;28;48196;-90
2023/06/11 09:01:26;;;;;;;;;13.33;12.00;;;;;29.18;52.91;-7690.22;5013952;28;45487;-91
2023/06/11 09:03:52;;;;;;;;;13.33;11.33;;;;;28.98;53.40;-8030.63;5010735;28;45510;-91
2023/06/11 09:06:18;;;;;;;;;18.33;14.67;;;;;29.10;53.19;-7689.69;5013187;28;45720;-91
2023/06/11 09:09:15;;;;;;;;;15.00;13.33;;;;;28.89;53.80;-8371.63;5008679;28;46324;-94
2023/06/11 09:11:40;;;;;;;;;14.00;14.00;;;;;28.81;54.25;-9395.72;5016510;28;45538;-95
2023/06/11 09:14:07;;;;;;;;;17.00;14.67;;;;;28.72;55.08;-10419.16;4998699;28;45494;-94
2023/06/11 09:16:41;;;;;;;;;17.00;15.00;;;;;28.88;55.75;-11103.72;5016071;28;45500;-93
2023/06/11 09:19:14;;;;;;;;;22.00;17.00;;;;;28.89;56.21;-11786.50;5020820;28;46207;-90
2023/06/11 09:21:52;;;;;;;;;14.67;14.00;;;;;28.88;56.35;-12468.97;5007419;28;45504;-91
2023/06/11 09:24:19;;;;;;;;;17.67;14.00;;;;;28.79;56.56;-12467.75;5011421;28;45587;-93
2023/06/11 09:26:56;;;;;;;;;16.00;14.67;;;;;28.66;56.28;-12465.97;5011873;28;45823;-89
2023/06/11 09:29:22;;;;;;;;;19.33;17.00;;;;;28.78;56.31;-12467.69;5013549;28;46598;-92
2023/06/11 09:31:47;;;;;;;;;20.67;19.00;;;;;28.40;56.27;-12462.41;5015829;28;45458;-94
2023/06/11 09:34:19;;;;;;;;;17.00;16.33;;;;;28.57;56.78;-12805.84;5018250;28;45432;-93
2023/06/11 09:36:48;;;;;;;;;15.67;15.67;;;;;28.65;57.14;-13148.00;5014957;28;45685;-88
2023/06/11 09:39:15;;;;;;;;;20.00;16.33;;;;;28.39;57.01;-13144.13;5012287;28;47483;-89
2023/06/11 09:41:51;;;;;;;;;20.00;20.00;;;;;28.57;56.63;-13487.94;4990388;28;45997;-90
2023/06/11 09:44:20;;;;;;;;;16.33;16.33;;;;;28.75;56.70;-13490.66;5004271;28;45726;-89
2023/06/11 09:46:47;;;;;;;;;15.67;15.33;;;;;28.87;56.86;-13833.72;5013509;28;45526;-91
2023/06/11 09:49:14;;;;;;;;;17.33;15.67;;;;;28.92;56.80;-13834.47;5021416;28;47214;-91
2023/06/11 09:51:40;;;;;;;;;19.33;18.00;;;;;28.73;56.63;-13490.34;5013079;28;45554;-95
2023/06/11 09:54:12;;;;;;;;;24.67;21.33;;;;;28.06;56.17;-13139.13;5016642;28;45559;-91
2023/06/11 09:56:37;;;;;;;;;22.00;20.33;;;;;28.29;56.74;-13142.59;5013649;28;45562;-91
2023/06/11 09:59:12;;;;;;;;;20.67;19.67;;;;;28.68;56.51;-13148.53;5008339;28;46809;-93
2023/06/11 10:01:40;;;;;;;;;24.67;20.00;;;;;27.67;56.40;-13133.34;5015621;28;45475;-96
2023/06/11 10:04:08;;;;;;;;;24.33;23.00;;;;;28.33;57.08;-13143.22;5006517;28;45650;-96
2023/06/11 10:06:44;;;;;;;;;21.67;21.00;;;;;27.98;57.06;-13819.38;5014526;28;45590;-94
2023/06/11 10:09:42;;;;;;;;;22.33;20.67;;;;;28.67;56.75;-13489.38;5010553;28;46528;-92
2023/06/11 10:12:08;;;;;;;;;26.33;23.67;;;;;28.64;56.79;-13147.91;5002966;28;45840;-89
2023/06/11 10:14:35;;;;;;;;;20.33;19.67;;;;;28.59;56.96;-13488.28;5009980;28;45625;-88
2023/06/11 10:17:02;;;;;;;;;20.33;20.33;;;;;28.56;57.20;-13487.72;5006945;28;45534;-88
2023/06/11 10:19:36;;;;;;;;;24.33;22.00;;;;;28.53;57.28;-13828.28;5025054;28;47457;-96
2023/06/11 10:22:02;;;;;;;;;20.67;20.67;;;;;28.00;57.34;-13479.00;5011587;28;45481;-94
2023/06/11 10:24:28;;;;;;;;;26.67;21.00;;;;;28.54;57.16;-13828.38;5008333;28;45470;-92
2023/06/11 10:27:04;;;;;;;;;23.00;21.33;;;;;28.52;56.96;-13487.16;5015645;28;45530;-92
2023/06/11 10:29:36;;;;;;;;;22.33;18.00;;;;;27.90;57.33;-14158.66;4987905;28;47172;-94
2023/06/11 10:32:24;;;;;;;;;22.00;19.00;;;;;28.68;57.26;-13830.69;5014928;28;45336;-96
2023/06/11 10:35:07;;;;;;;;;24.00;23.00;;;;;27.99;56.17;-13478.84;5018626;28;45573;-96
2023/06/11 10:37:36;;;;;;;;;25.33;22.00;;;;;28.55;55.90;-13146.53;5043876;22;45533;-92
2023/06/11 10:40:08;;;;;;;;;23.67;20.33;;;;;28.94;55.26;-13152.47;4990501;28;48196;-89
2023/06/11 10:42:37;;;;;;;;;24.33;22.67;;;;;30.03;53.79;-12485.03;5005621;28;45821;-90
2023/06/11 10:45:12;;;;;;;;;25.00;23.33;;;;;30.17;53.42;-12828.97;4987151;28;45446;-91
2023/06/11 10:47:49;;;;;;;;;22.33;22.00;;;;;31.47;52.41;-12505.00;5007873;28;45621;-90
2023/06/11 10:50:23;;;;;;;;;22.33;20.33;;;;;31.67;50.44;-11136.44;4984003;28;48486;-91
2023/06/11 10:52:54;;;;;;;;;24.00;23.00;;;;;32.36;48.44;-8740.94;5008243;28;45794;-90
2023/06/11 10:55:21;;;;;;;;;21.33;21.33;;;;;33.05;47.63;-6338.69;5006718;28;45581;-90
2023/06/11 10:57:53;;;;;;;;;22.67;20.00;;;;;33.05;46.03;-3929.50;5001953;28;46462;-91
2023/06/11 11:00:20;;;;;;;;;22.00;20.33;;;;;33.38;45.86;-2206.94;5002846;28;45557;-90
2023/06/11 11:02:46;;;;;;;;;27.00;24.67;;;;;33.18;46.11;-1173.78;5007573;28;46625;-91
2023/06/11 11:08:02;;;;;;;;;31.33;25.00;;;;;32.84;46.97;891.88;5031974;22;58343;-90
2023/06/11 11:10:40;;;;;;;;;26.33;23.33;;;;;32.79;47.10;202.50;5011629;28;45567;-92
2023/06/11 11:16:03;;;;;;;;;24.33;23.33;;;;;33.15;45.69;2273.44;5020465;22;45510;-90
2023/06/11 11:18:29;;;;;;;;;23.00;21.00;;;;;33.31;44.78;2964.94;5001004;28;45527;-92
2023/06/11 11:21:04;;;;;;;;;;;;;;;;;;;;;
2023/06/11 11:24:07;;;;;;;;;25.33;20.00;;;;;34.58;43.29;6437.16;5003401;28;73925;-91
2023/06/11 11:26:55;;;;;;;;;24.67;20.33;;;;;33.56;43.51;10568.75;4991261;22;45775;-90
2023/06/11 11:29:20;;;;;;;;;23.67;23.67;;;;;33.83;43.24;11959.09;4977758;28;45632;-87
2023/06/11 11:31:46;;;;;;;;;24.33;20.33;;;;;33.73;43.90;13341.22;4994158;28;46295;-88
2023/06/11 11:34:12;;;;;;;;;23.33;22.00;;;;;33.12;44.14;13670.75;4991571;28;45481;-90
2023/06/11 11:36:38;;;;;;;;;19.67;17.67;;;;;33.59;44.36;14722.06;4989206;28;45488;-89
2023/06/11 11:51:38;;;;;;;;;21.67;20.33;;;;;30.98;47.15;13612.44;899685;26;46267;-89
2023/06/11 11:54:51;;;;;;;;;22.67;22.67;;;;;30.99;47.17;13267.84;4924772;28;47078;-90
2023/06/11 11:59:45;;;;;;;;;29.00;24.33;;;;;31.33;47.48;11553.09;5014593;22;67878;-89
2023/06/11 12:04:50;;;;;;;;;20.33;19.33;;;;;30.84;47.35;12919.44;5078772;22;73924;-89
2023/06/11 12:10:26;;;;;;;;;20.33;19.33;;;;;31.42;46.40;12589.66;5027391;22;45523;-87
2023/06/11 12:16:17;;;;;;;;;19.00;16.67;;;;;31.72;46.53;13977.78;4993615;28;45485;-86
2023/06/11 12:18:45;;;;;;;;;15.67;15.33;;;;;31.65;46.47;13630.53;5003748;28;45554;-86
2023/06/11 12:21:10;;;;;;;;;21.33;20.00;;;;;30.69;47.26;13604.47;5005391;28;45845;-87
2023/06/11 12:23:36;;;;;;;;;19.33;17.00;;;;;30.81;47.94;12229.41;4988924;28;45544;-86
2023/06/11 12:26:02;;;;;;;;;21.67;21.67;;;;;30.66;47.55;12570.13;5009728;28;45673;-84
2023/06/11 12:28:28;;;;;;;;;22.33;22.33;;;;;30.67;47.58;12915.00;4994213;28;45511;-87
2023/06/11 12:31:18;;;;;;;;;26.00;22.33;;;;;30.68;47.91;13259.81;4990771;28;45550;-86
2023/06/11 12:33:58;;;;;;;;;34.33;29.33;;;;;30.20;48.25;12558.50;4994750;28;45566;-88
2023/06/11 12:36:43;;;;;;;;;28.00;27.33;;;;;30.34;48.80;11185.03;4984373;28;47755;-88
2023/06/11 12:39:09;;;;;;;;;25.33;23.33;;;;;30.59;49.34;10158.13;4997677;28;45503;-86
2023/06/11 12:44:39;;;;;;;;;25.00;21.33;;;;;29.41;50.30;7728.34;4994712;28;45572;-85
2023/06/11 12:52:15;;;;;;;;;28.00;25.00;;;;;29.22;58.20;-14863.28;5447612;22;45537;-82
2023/06/11 12:54:49;;;;;;;;;32.33;30.33;;;;;28.88;60.91;-19288.41;5015356;28;45371;-86
2023/06/11 12:57:18;;;;;;;;;29.00;25.33;;;;;29.63;60.66;-19648.00;4961232;28;45524;-87
2023/06/11 12:59:43;;;;;;;;;34.00;29.00;;;;;28.54;61.78;-19962.97;4988106;28;45971;-87
2023/06/11 13:02:37;;;;;;;;;33.33;28.33;;;;;28.96;62.49;-19973.63;5000510;28;45826;-88
2023/06/11 13:05:03;;;;;;;;;35.00;31.00;;;;;28.90;62.44;-19972.19;5002751;28;45609;-88
2023/06/11 13:07:37;;;;;;;;;43.33;34.00;;;;;29.01;64.51;-19975.09;4975971;22;46080;-91
2023/06/11 13:10:04;;;;;;;;;36.33;31.00;;;;;29.12;62.95;-19977.84;5004119;22;45606;-84
2023/06/11 13:12:29;;;;;;;;;34.67;32.33;;;;;28.93;62.59;-19972.97;4961540;28;45950;-89
2023/06/11 13:14:55;;;;;;;;;32.00;31.00;;;;;28.55;63.51;-19963.22;4990361;28;47049;-96
2023/06/11 13:17:20;;;;;;;;;41.33;35.67;;;;;28.33;63.91;-19957.56;4997720;28;45789;-95
2023/06/11 13:19:46;;;;;;;;;37.33;34.00;;;;;28.23;64.75;-19954.91;4977558;28;45533;-96
2023/06/11 13:22:12;;;;;;;;;36.00;32.67;;;;;28.43;65.18;-19960.06;4969881;28;45696;-91
2023/06/11 13:24:38;;;;;;;;;43.67;34.33;;;;;28.18;65.88;-19953.72;4962069;28;45667;-92
2023/06/11 13:27:04;;;;;;;;;45.00;36.00;;;;;28.11;66.12;-19951.75;4976964;28;47463;-91
2023/06/11 13:29:32;;;;;;;;;48.00;39.33;;;;;28.01;67.77;-19949.25;4975663;28;45781;-91
2023/06/11 13:31:57;;;;;;;;;45.67;36.67;;;;;27.83;71.69;-19944.63;4995130;28;45358;-92
2023/06/11 13:34:23;;;;;;;;;48.33;41.00;;;;;27.95;74.34;-19947.66;4978018;28;45405;-94
2023/06/11 13:37:14;;;;;;;;;53.00;40.33;;;;;27.13;77.37;-19926.66;5018713;22;48394;-86
2023/06/11 13:39:43;;;;;;;;;28.00;26.33;;;;;27.29;74.42;-19930.78;4989049;28;46282;-92
2023/06/11 13:42:08;;;;;;;;;16.33;15.67;;;;;25.78;76.11;-19891.75;4994349;28;45594;-89
2023/06/11 13:44:37;;;;;;;;;10.33;8.33;;;;;25.31;75.60;-19879.59;4994413;28;45400;-89
2023/06/11 13:50:34;;;;;;;;;11.00;9.33;;;;;24.00;78.82;-14669.84;5041478;22;45521;-89
2023/06/11 13:56:00;;;;;;;;;;;;;;;;;;;;;
2023/06/11 13:58:28;;;;;;;;;19.67;19.67;;;;;23.83;83.98;40506.50;4988529;28;75232;-95
2023/06/11 14:00:54;;;;;;;;;23.67;23.67;;;;;24.27;84.29;45676.03;4987256;28;45998;-89
2023/06/11 14:03:19;;;;;;;;;28.67;25.67;;;;;24.61;86.13;66137.56;5001403;28;45453;-91
2023/06/11 14:05:45;;;;;;;;;36.67;28.00;;;;;24.31;88.95;86194.91;4995448;28;45442;-94
2023/06/11 14:08:17;;;;;;;;;40.67;31.33;;;;;23.85;94.18;114569.97;4986097;28;47152;-90
2023/06/11 14:10:59;;;;;;;;;42.00;35.67;;;;;23.75;99.67;133823.22;5001079;28;45499;-94
2023/06/11 14:13:24;;;;;;;;;45.00;36.33;;;;;23.79;100.00;140159.47;4978977;28;45465;-95
2023/06/11 14:15:49;;;;;;;;;45.67;37.67;;;;;23.36;100.00;144982.97;5000793;28;45324;-96
2023/06/11 14:18:15;;;;;;;;;45.67;35.67;;;;;24.17;100.00;147644.56;5002290;28;46199;-95
2023/06/11 14:20:41;;;;;;;;;40.67;35.33;;;;;24.45;100.00;149830.50;4998146;28;45505;-92
2023/06/11 14:23:06;;;;;;;;;42.33;36.00;;;;;24.51;100.00;151256.72;4991294;28;45431;-91
2023/06/11 14:25:31;;;;;;;;;51.67;39.00;;;;;24.14;100.00;152576.50;5012672;28;45537;-91
2023/06/11 14:27:57;;;;;;;;;47.33;39.33;;;;;25.03;100.00;152447.56;5001212;28;48366;-96
2023/06/11 14:30:23;;;;;;;;;42.00;37.33;;;;;24.55;100.00;151620.09;5001539;28;45332;-96
2023/06/11 14:32:48;;;;;;;;;46.67;38.33;;;;;24.36;100.00;151927.00;4989274;28;45316;-95
2023/06/11 14:35:36;;;;;;;;;46.00;36.67;;;;;25.69;100.00;151552.16;5041427;22;45847;-91
2023/06/11 14:38:40;;;;;;;;;33.33;30.00;;;;;25.43;100.00;149013.34;4997054;28;46667;-94
2023/06/11 14:43:49;;;;;;;;;40.33;31.33;;;;;25.99;100.00;147027.19;5001122;22;67519;-93
2023/06/11 14:46:15;;;;;;;;;36.67;30.33;;;;;25.99;100.00;148088.09;4995763;28;45418;-96
2023/06/11 14:48:40;;;;;;;;;35.67;30.33;;;;;26.24;100.00;148857.06;4999284;28;46930;-96
2023/06/11 14:51:06;;;;;;;;;34.67;29.33;;;;;25.69;100.00;149429.88;4992549;28;45381;-96
2023/06/11 14:53:31;;;;;;;;;34.67;29.33;;;;;26.19;100.00;148845.75;5001105;28;45804;-91
2023/06/11 14:55:57;;;;;;;;;30.33;29.33;;;;;25.87;100.00;148412.97;5008945;28;45474;-89
2023/06/11 14:58:22;;;;;;;;;35.33;31.67;;;;;26.13;100.00;147061.97;5012904;28;47764;-91
2023/06/11 15:00:47;;;;;;;;;30.67;27.67;;;;;27.11;100.00;144466.16;5003652;28;45461;-92
2023/06/11 15:03:13;;;;;;;;;30.00;26.00;;;;;26.70;100.00;145431.38;4982146;28;45417;-87
2023/06/11 15:05:39;;;;;;;;;27.33;25.00;;;;;27.17;100.00;143064.91;5010759;28;45384;-86
2023/06/11 15:08:05;;;;;;;;;26.67;24.33;;;;;27.35;99.95;142400.41;5007449;28;45530;-88
2023/06/11 15:10:30;;;;;;;;;26.33;24.33;;;;;27.29;95.60;100833.16;5000824;28;45464;-90
2023/06/11 15:12:56;;;;;;;;;27.33;26.33;;;;;27.34;95.06;100842.56;4980146;28;45444;-90
2023/06/11 15:15:22;;;;;;;;;26.67;26.33;;;;;27.32;94.70;85048.03;4989908;28;45518;-90
2023/06/11 15:17:50;;;;;;;;;28.00;26.67;;;;;27.21;93.93;79412.91;5007162;28;47165;-91
2023/06/11 15:20:16;;;;;;;;;26.67;25.00;;;;;27.19;95.30;101867.94;4991267;28;45663;-91
2023/06/11 15:22:51;;;;;;;;;23.00;21.67;;;;;26.14;94.76;104139.41;5002197;28;45491;-89
2023/06/11 15:25:17;;;;;;;;;21.00;18.33;;;;;26.70;94.66;97935.78;4995965;28;45585;-94
2023/06/11 15:27:49;;;;;;;;;19.67;19.67;;;;;26.46;94.80;102444.53;5005158;28;46992;-94
2023/06/11 15:30:15;;;;;;;;;28.00;25.33;;;;;26.43;93.49;71668.53;5014276;28;45964;-94
2023/06/11 15:32:40;;;;;;;;;29.67;28.33;;;;;26.78;93.82;88515.03;4984695;28;45545;-89
2023/06/11 15:35:06;;;;;;;;;30.33;29.67;;;;;27.25;95.68;111701.81;4995023;28;45359;-91
2023/06/11 15:37:32;;;;;;;;;32.67;27.33;;;;;27.45;95.79;114198.13;4992110;28;48268;-90
2023/06/11 15:39:57;;;;;;;;;31.00;27.33;;;;;27.71;93.97;79418.69;5016571;28;45386;-89
2023/06/11 15:42:23;;;;;;;;;33.67;31.00;;;;;27.27;93.41;74498.38;4982352;28;47718;-89
2023/06/11 15:44:48;;;;;;;;;35.33;30.67;;;;;27.78;93.55;78662.59;5011936;28;45680;-90
2023/06/11 15:47:13;;;;;;;;;34.00;31.33;;;;;27.58;90.62;15513.78;5000492;28;45447;-89
2023/06/11 15:49:39;;;;;;;;;33.33;30.33;;;;;27.70;89.58;-4068.47;5000620;28;47254;-91
2023/06/11 15:52:05;;;;;;;;;32.00;30.33;;;;;27.61;89.68;7196.13;4980676;28;45437;-89
2023/06/11 15:54:30;;;;;;;;;28.33;26.00;;;;;27.83;88.88;-8310.41;5004431;28;45498;-89
2023/06/11 15:56:55;;;;;;;;;32.33;30.00;;;;;27.65;88.45;-7730.91;4979651;28;47100;-92
2023/06/11 15:59:21;;;;;;;;;30.00;28.00;;;;;27.68;87.78;-17518.47;5000948;28;45721;-90
2023/06/11 16:01:46;;;;;;;;;28.00;28.00;;;;;27.25;88.10;-10791.78;5015643;28;45471;-90
2023/06/11 16:04:12;;;;;;;;;32.33;30.00;;;;;27.13;86.31;-19926.66;5018131;28;45439;-93
2023/06/11 16:06:38;;;;;;;;;32.00;29.33;;;;;27.69;85.59;-19940.94;4997759;28;47520;-86